sensor_id;sensor_type;location;lat;lon;timestamp;pressure;altitude;pressure_sealevel;temperature;humidity
70434;BME280;57876;47.792;12.960;2023-06-14T00:01:54;96328.66;;;18.74;53.17
70434;BME280;57876;47.792;12.960;2023-06-14T00:04:19;96337.34;;;18.76;53.12
70434;BME280;57876;47.792;12.960;2023-06-14T00:06:45;96327.75;;;18.69;52.96
70434;BME280;57876;47.792;12.960;2023-06-14T00:09:09;96340.72;;;18.85;52.96
70434;BME280;57876;47.792;12.960;2023-06-14T00:11:34;96337.81;;;18.78;53.08
70434;BME280;57876;47.792;12.960;2023-06-14T00:14:01;96340.97;;;18.80;52.94
70434;BME280;57876;47.792;12.960;2023-06-14T00:16:27;96343.13;;;18.86;52.97
70434;BME280;57876;47.792;12.960;2023-06-14T00:18:51;96326.84;;;18.78;53.14
70434;BME280;57876;47.792;12.960;2023-06-14T00:21:16;96329.69;;;18.81;53.02
70434;BME280;57876;47.792;12.960;2023-06-14T00:23:40;96339.16;;;18.84;53.06
70434;BME280;57876;47.792;12.960;2023-06-14T00:26:07;96340.38;;;18.86;52.95
70434;BME280;57876;47.792;12.960;2023-06-14T00:28:34;96328.19;;;18.84;52.84
70434;BME280;57876;47.792;12.960;2023-06-14T00:31:02;96332.97;;;18.87;53.01
70434;BME280;57876;47.792;12.960;2023-06-14T00:33:26;96333.03;;;18.90;53.00
70434;BME280;57876;47.792;12.960;2023-06-14T00:35:51;96318.81;;;18.85;52.77
70434;BME280;57876;47.792;12.960;2023-06-14T00:38:18;96315.59;;;18.83;53.04
70434;BME280;57876;47.792;12.960;2023-06-14T00:40:42;96340.59;;;18.94;53.11
70434;BME280;57876;47.792;12.960;2023-06-14T00:43:07;96318.63;;;18.78;52.86
70434;BME280;57876;47.792;12.960;2023-06-14T00:45:31;96325.19;;;18.89;52.68
70434;BME280;57876;47.792;12.960;2023-06-14T00:48:00;96315.59;;;18.83;52.87
70434;BME280;57876;47.792;12.960;2023-06-14T00:50:25;96321.28;;;18.90;53.02
70434;BME280;57876;47.792;12.960;2023-06-14T00:52:50;96301.81;;;18.79;53.03
70434;BME280;57876;47.792;12.960;2023-06-14T00:55:15;96316.84;;;18.85;52.71
70434;BME280;57876;47.792;12.960;2023-06-14T00:57:39;96311.81;;;18.87;53.03
70434;BME280;57876;47.792;12.960;2023-06-14T01:00:04;96313.69;;;18.83;52.83
70434;BME280;57876;47.792;12.960;2023-06-14T01:02:34;96318.56;;;18.90;52.66
70434;BME280;57876;47.792;12.960;2023-06-14T01:04:58;96314.69;;;18.91;52.82
70434;BME280;57876;47.792;12.960;2023-06-14T01:12:58;96325.66;;;18.91;52.83
70434;BME280;57876;47.792;12.960;2023-06-14T01:15:27;96322.91;;;18.91;52.97
70434;BME280;57876;47.792;12.960;2023-06-14T01:17:53;96325.28;;;18.92;53.00
70434;BME280;57876;47.792;12.960;2023-06-14T01:20:21;96325.66;;;18.91;53.05
70434;BME280;57876;47.792;12.960;2023-06-14T01:22:55;96331.56;;;18.93;53.00
70434;BME280;57876;47.792;12.960;2023-06-14T01:25:20;96333.50;;;18.92;52.94
70434;BME280;57876;47.792;12.960;2023-06-14T01:27:48;96328.38;;;18.91;52.80
70434;BME280;57876;47.792;12.960;2023-06-14T01:30:14;96333.16;;;18.94;53.07
70434;BME280;57876;47.792;12.960;2023-06-14T01:32:39;96330.84;;;18.96;53.03
70434;BME280;57876;47.792;12.960;2023-06-14T01:35:03;96322.19;;;18.94;53.08
70434;BME280;57876;47.792;12.960;2023-06-14T01:37:28;96334.81;;;18.99;52.91
70434;BME280;57876;47.792;12.960;2023-06-14T01:39:53;96328.56;;;18.98;52.93
70434;BME280;57876;47.792;12.960;2023-06-14T01:42:18;96323.00;;;18.95;52.85
70434;BME280;57876;47.792;12.960;2023-06-14T01:44:44;96313.28;;;18.97;52.83
70434;BME280;57876;47.792;12.960;2023-06-14T01:47:09;96330.59;;;19.01;52.82
70434;BME280;57876;47.792;12.960;2023-06-14T01:49:34;96320.78;;;19.00;52.86
70434;BME280;57876;47.792;12.960;2023-06-14T01:51:59;96325.47;;;19.00;52.96
70434;BME280;57876;47.792;12.960;2023-06-14T01:54:23;96332.53;;;19.01;53.00
70434;BME280;57876;47.792;12.960;2023-06-14T01:56:49;96338.41;;;18.99;52.95
70434;BME280;57876;47.792;12.960;2023-06-14T01:59:14;96334.50;;;19.00;52.90
70434;BME280;57876;47.792;12.960;2023-06-14T02:01:38;96338.41;;;18.99;52.99
70434;BME280;57876;47.792;12.960;2023-06-14T02:04:03;96331.75;;;19.00;53.05
70434;BME280;57876;47.792;12.960;2023-06-14T02:06:27;96328.94;;;18.97;52.80
70434;BME280;57876;47.792;12.960;2023-06-14T02:08:52;96339.53;;;18.98;53.00
70434;BME280;57876;47.792;12.960;2023-06-14T02:11:16;96338.72;;;18.98;53.19
70434;BME280;57876;47.792;12.960;2023-06-14T02:13:41;96328.38;;;18.91;52.89
70434;BME280;57876;47.792;12.960;2023-06-14T02:16:05;96337.03;;;18.93;53.07
70434;BME280;57876;47.792;12.960;2023-06-14T02:18:30;96333.94;;;18.95;52.98
70434;BME280;57876;47.792;12.960;2023-06-14T02:20:55;96337.16;;;18.97;52.92
70434;BME280;57876;47.792;12.960;2023-06-14T02:23:20;96328.47;;;18.95;52.87
70434;BME280;57876;47.792;12.960;2023-06-14T02:25:45;96337.03;;;18.93;52.87
70434;BME280;57876;47.792;12.960;2023-06-14T02:28:10;96325.19;;;18.89;53.15
70434;BME280;57876;47.792;12.960;2023-06-14T02:30:34;96325.28;;;18.92;52.89
70434;BME280;57876;47.792;12.960;2023-06-14T02:32:59;96320.41;;;18.86;52.99
70434;BME280;57876;47.792;12.960;2023-06-14T02:35:23;96334.28;;;18.93;52.98
70434;BME280;57876;47.792;12.960;2023-06-14T02:37:51;96334.28;;;18.93;52.95
70434;BME280;57876;47.792;12.960;2023-06-14T02:40:15;96326.78;;;18.90;53.02
70434;BME280;57876;47.792;12.960;2023-06-14T02:42:39;96333.16;;;18.94;53.02
70434;BME280;57876;47.792;12.960;2023-06-14T02:45:04;96333.16;;;18.94;53.07
70434;BME280;57876;47.792;12.960;2023-06-14T02:47:29;96332.78;;;18.96;53.06
70434;BME280;57876;47.792;12.960;2023-06-14T02:49:54;96340.69;;;18.97;52.86
70434;BME280;57876;47.792;12.960;2023-06-14T02:52:18;96343.88;;;18.99;52.92
70434;BME280;57876;47.792;12.960;2023-06-14T02:54:42;96350.94;;;19.00;52.86
70434;BME280;57876;47.792;12.960;2023-06-14T02:57:07;96348.19;;;19.00;52.82
70434;BME280;57876;47.792;12.960;2023-06-14T02:59:32;96341.56;;;19.01;52.91
70434;BME280;57876;47.792;12.960;2023-06-14T03:01:56;96342.38;;;19.02;53.04
70434;BME280;57876;47.792;12.960;2023-06-14T03:04:20;96347.50;;;19.03;52.72
70434;BME280;57876;47.792;12.960;2023-06-14T03:06:45;96351.03;;;19.04;52.68
70434;BME280;57876;47.792;12.960;2023-06-14T03:09:14;96349.78;;;19.01;52.92
70434;BME280;57876;47.792;12.960;2023-06-14T03:11:38;96347.94;;;19.05;52.95
70434;BME280;57876;47.792;12.960;2023-06-14T03:14:03;96335.28;;;19.01;52.92
70434;BME280;57876;47.792;12.960;2023-06-14T03:16:28;96345.19;;;19.05;52.90
70434;BME280;57876;47.792;12.960;2023-06-14T03:18:54;96343.63;;;19.04;52.82
70434;BME280;57876;47.792;12.960;2023-06-14T03:21:19;96346.38;;;19.04;52.80
70434;BME280;57876;47.792;12.960;2023-06-14T03:23:44;96358.56;;;19.07;52.96
70434;BME280;57876;47.792;12.960;2023-06-14T03:26:09;96349.09;;;19.04;52.86
70434;BME280;57876;47.792;12.960;2023-06-14T03:28:33;96345.78;;;18.99;52.78
70434;BME280;57876;47.792;12.960;2023-06-14T03:30:58;96351.72;;;19.01;52.64
70434;BME280;57876;47.792;12.960;2023-06-14T03:33:22;96367.13;;;19.05;52.78
70434;BME280;57876;47.792;12.960;2023-06-14T03:35:46;96358.38;;;19.00;52.84
70434;BME280;57876;47.792;12.960;2023-06-14T03:38:11;96360.75;;;19.01;52.80
70434;BME280;57876;47.792;12.960;2023-06-14T03:40:35;96369.41;;;19.03;52.91
70434;BME280;57876;47.792;12.960;2023-06-14T03:43:00;96371.03;;;19.04;52.68
70434;BME280;57876;47.792;12.960;2023-06-14T03:45:24;96375.25;;;19.02;52.70
70434;BME280;57876;47.792;12.960;2023-06-14T03:47:48;96377.19;;;19.01;52.85
70434;BME280;57876;47.792;12.960;2023-06-14T03:50:14;96375.25;;;19.02;52.92
70434;BME280;57876;47.792;12.960;2023-06-14T03:52:39;96382.00;;;19.04;52.81
70434;BME280;57876;47.792;12.960;2023-06-14T03:55:06;96387.81;;;19.03;52.86
70434;BME280;57876;47.792;12.960;2023-06-14T03:57:32;96387.34;;;19.01;52.88
70434;BME280;57876;47.792;12.960;2023-06-14T03:59:56;96399.56;;;19.03;52.74
70434;BME280;57876;47.792;12.960;2023-06-14T04:02:21;96398.06;;;19.06;52.70
70434;BME280;57876;47.792;12.960;2023-06-14T04:04:49;96389.75;;;19.02;52.73
70434;BME280;57876;47.792;12.960;2023-06-14T04:07:14;96400.03;;;19.05;52.88
70434;BME280;57876;47.792;12.960;2023-06-14T04:09:39;96398.97;;;19.10;52.89
70434;BME280;57876;47.792;12.960;2023-06-14T04:12:05;96387.34;;;19.01;52.92
70434;BME280;57876;47.792;12.960;2023-06-14T04:14:30;96395.00;;;19.07;52.61
70434;BME280;57876;47.792;12.960;2023-06-14T04:16:56;96406.13;;;19.14;52.80
70434;BME280;57876;47.792;12.960;2023-06-14T04:19:21;96388.34;;;19.08;52.75
70434;BME280;57876;47.792;12.960;2023-06-14T04:21:45;96403.84;;;19.17;52.72
70434;BME280;57876;47.792;12.960;2023-06-14T04:24:10;96394.75;;;19.12;52.72
70434;BME280;57876;47.792;12.960;2023-06-14T04:26:37;96401.22;;;19.20;52.77
70434;BME280;57876;47.792;12.960;2023-06-14T04:29:02;96408.19;;;19.18;52.62
70434;BME280;57876;47.792;12.960;2023-06-14T04:31:26;96409.00;;;19.18;52.83
70434;BME280;57876;47.792;12.960;2023-06-14T04:33:53;96411.03;;;19.21;52.79
70434;BME280;57876;47.792;12.960;2023-06-14T04:36:17;96409.09;;;19.22;52.78
70434;BME280;57876;47.792;12.960;2023-06-14T04:38:42;96416.59;;;19.25;52.80
70434;BME280;57876;47.792;12.960;2023-06-14T04:41:09;96416.16;;;19.23;52.74
70434;BME280;57876;47.792;12.960;2023-06-14T04:43:35;96415.03;;;19.24;52.79
70434;BME280;57876;47.792;12.960;2023-06-14T04:46:02;96412.28;;;19.24;52.81
70434;BME280;57876;47.792;12.960;2023-06-14T04:48:27;96415.34;;;19.22;52.71
70434;BME280;57876;47.792;12.960;2023-06-14T04:50:52;96416.16;;;19.23;52.78
70434;BME280;57876;47.792;12.960;2023-06-14T04:53:18;96409.00;;;19.18;52.79
70434;BME280;57876;47.792;12.960;2023-06-14T04:55:45;96422.09;;;19.25;53.15
70434;BME280;57876;47.792;12.960;2023-06-14T04:58:10;96419.72;;;19.23;52.65
70434;BME280;57876;47.792;12.960;2023-06-14T05:00:37;96417.75;;;19.24;52.69
70434;BME280;57876;47.792;12.960;2023-06-14T05:03:01;96425.97;;;19.24;52.69
70434;BME280;57876;47.792;12.960;2023-06-14T05:05:26;96411.03;;;19.21;52.57
70434;BME280;57876;47.792;12.960;2023-06-14T05:07:51;96421.63;;;19.23;52.70
70434;BME280;57876;47.792;12.960;2023-06-14T05:10:16;96415.28;;;19.19;52.77
70434;BME280;57876;47.792;12.960;2023-06-14T05:12:40;96414.03;;;19.16;52.72
70434;BME280;57876;47.792;12.960;2023-06-14T05:15:08;96422.78;;;19.22;52.86
70434;BME280;57876;47.792;12.960;2023-06-14T05:17:33;96417.56;;;19.17;52.84
70434;BME280;57876;47.792;12.960;2023-06-14T05:19:57;96426.31;;;19.22;52.66
70434;BME280;57876;47.792;12.960;2023-06-14T05:22:21;96428.63;;;19.20;52.76
70434;BME280;57876;47.792;12.960;2023-06-14T05:24:46;96426.22;;;19.19;53.06
70434;BME280;57876;47.792;12.960;2023-06-14T05:27:12;96436.50;;;19.22;52.56
70434;BME280;57876;47.792;12.960;2023-06-14T05:29:36;96432.88;;;19.18;52.76
70434;BME280;57876;47.792;12.960;2023-06-14T05:32:01;96439.59;;;19.20;52.64
70434;BME280;57876;47.792;12.960;2023-06-14T05:34:26;96435.72;;;19.21;52.71
70434;BME280;57876;47.792;12.960;2023-06-14T05:36:50;96436.88;;;19.20;52.72
70434;BME280;57876;47.792;12.960;2023-06-14T05:39:14;96439.50;;;19.17;52.65
70434;BME280;57876;47.792;12.960;2023-06-14T05:41:39;96433.22;;;19.16;52.71
70434;BME280;57876;47.792;12.960;2023-06-14T05:44:03;96434.00;;;19.17;52.67
70434;BME280;57876;47.792;12.960;2023-06-14T05:46:28;96431.97;;;19.13;52.50
70434;BME280;57876;47.792;12.960;2023-06-14T05:48:52;96441.91;;;19.18;52.60
70434;BME280;57876;47.792;12.960;2023-06-14T05:51:17;96446.22;;;19.19;52.69
70434;BME280;57876;47.792;12.960;2023-06-14T05:53:48;96439.41;;;19.13;52.65
70434;BME280;57876;47.792;12.960;2023-06-14T05:56:13;96428.78;;;19.11;52.74
70434;BME280;57876;47.792;12.960;2023-06-14T05:58:38;96439.03;;;19.14;52.71
70434;BME280;57876;47.792;12.960;2023-06-14T06:01:02;96426.94;;;19.16;52.71
70434;BME280;57876;47.792;12.960;2023-06-14T06:03:27;96437.91;;;19.16;52.62
70434;BME280;57876;47.792;12.960;2023-06-14T06:05:53;96435.16;;;19.16;52.57
70434;BME280;57876;47.792;12.960;2023-06-14T06:08:17;96436.28;;;19.14;52.64
70434;BME280;57876;47.792;12.960;2023-06-14T06:10:42;96427.88;;;19.07;52.50
70434;BME280;57876;47.792;12.960;2023-06-14T06:13:07;96431.88;;;19.10;52.77
70434;BME280;57876;47.792;12.960;2023-06-14T06:15:32;96445.66;;;19.13;52.54
70434;BME280;57876;47.792;12.960;2023-06-14T06:17:56;96450.81;;;19.15;52.62
70434;BME280;57876;47.792;12.960;2023-06-14T06:20:23;96445.66;;;19.13;52.52
70434;BME280;57876;47.792;12.960;2023-06-14T06:22:52;96446.47;;;19.14;52.32
70434;BME280;57876;47.792;12.960;2023-06-14T06:25:16;96456.38;;;19.19;52.44
70434;BME280;57876;47.792;12.960;2023-06-14T06:27:40;96447.25;;;19.14;52.36
70434;BME280;57876;47.792;12.960;2023-06-14T06:30:05;96449.31;;;19.18;52.44
70434;BME280;57876;47.792;12.960;2023-06-14T06:32:30;96454.81;;;19.18;52.53
70434;BME280;57876;47.792;12.960;2023-06-14T06:34:54;96451.25;;;19.17;52.54
70434;BME280;57876;47.792;12.960;2023-06-14T06:37:19;96453.44;;;19.11;52.16
70434;BME280;57876;47.792;12.960;2023-06-14T06:39:43;96462.66;;;19.19;52.47
70434;BME280;57876;47.792;12.960;2023-06-14T06:42:08;96459.13;;;19.19;52.26
70434;BME280;57876;47.792;12.960;2023-06-14T06:44:32;96446.84;;;19.12;52.38
70434;BME280;57876;47.792;12.960;2023-06-14T06:46:57;96466.19;;;19.20;52.24
70434;BME280;57876;47.792;12.960;2023-06-14T06:49:22;96463.47;;;19.20;52.40
70434;BME280;57876;47.792;12.960;2023-06-14T06:51:59;96461.78;;;19.15;52.19
70434;BME280;57876;47.792;12.960;2023-06-14T06:54:25;96466.91;;;19.17;52.03
70434;BME280;57876;47.792;12.960;2023-06-14T06:56:49;96469.31;;;19.18;52.24
70434;BME280;57876;47.792;12.960;2023-06-14T06:59:13;96469.66;;;19.17;52.40
70434;BME280;57876;47.792;12.960;2023-06-14T07:01:40;96454.59;;;19.10;52.30
70434;BME280;57876;47.792;12.960;2023-06-14T07:04:05;96461.88;;;19.19;52.24
70434;BME280;57876;47.792;12.960;2023-06-14T07:06:29;96467.69;;;19.17;52.23
70434;BME280;57876;47.792;12.960;2023-06-14T07:08:54;96464.28;;;19.20;52.20
70434;BME280;57876;47.792;12.960;2023-06-14T07:11:18;96461.88;;;19.19;52.41
70434;BME280;57876;47.792;12.960;2023-06-14T07:13:43;96464.97;;;19.17;52.25
70434;BME280;57876;47.792;12.960;2023-06-14T07:16:07;96464.16;;;19.17;52.41
70434;BME280;57876;47.792;12.960;2023-06-14T07:18:31;96477.16;;;19.20;52.16
70434;BME280;57876;47.792;12.960;2023-06-14T07:20:56;96479.22;;;19.23;51.78
70434;BME280;57876;47.792;12.960;2023-06-14T07:23:21;96474.78;;;19.18;52.22
70434;BME280;57876;47.792;12.960;2023-06-14T07:25:45;96492.13;;;19.22;52.21
70434;BME280;57876;47.792;12.960;2023-06-14T07:28:10;96459.63;;;19.08;52.08
70434;BME280;57876;47.792;12.960;2023-06-14T07:30:35;96478.56;;;19.13;52.27
70434;BME280;57876;47.792;12.960;2023-06-14T07:32:59;96482.66;;;19.20;52.25
70434;BME280;57876;47.792;12.960;2023-06-14T07:35:24;96483.09;;;19.22;52.16
70434;BME280;57876;47.792;12.960;2023-06-14T07:37:48;96478.31;;;19.19;52.23
70434;BME280;57876;47.792;12.960;2023-06-14T07:40:13;96482.66;;;19.20;52.06
70434;BME280;57876;47.792;12.960;2023-06-14T07:42:38;96477.41;;;19.14;52.19
70434;BME280;57876;47.792;12.960;2023-06-14T07:45:03;96477.88;;;19.17;52.10
70434;BME280;57876;47.792;12.960;2023-06-14T07:47:28;96487.00;;;19.21;52.11
70434;BME280;57876;47.792;12.960;2023-06-14T07:49:52;96482.66;;;19.20;52.08
70434;BME280;57876;47.792;12.960;2023-06-14T07:52:17;96475.50;;;19.15;52.16
70434;BME280;57876;47.792;12.960;2023-06-14T07:54:41;96482.56;;;19.16;52.17
70434;BME280;57876;47.792;12.960;2023-06-14T07:57:06;96500.25;;;19.19;52.34
70434;BME280;57876;47.792;12.960;2023-06-14T07:59:30;96490.44;;;19.18;52.58
70434;BME280;57876;47.792;12.960;2023-06-14T08:01:55;96469.88;;;19.11;52.19
70434;BME280;57876;47.792;12.960;2023-06-14T08:04:19;96473.34;;;19.08;52.16
70434;BME280;57876;47.792;12.960;2023-06-14T08:06:43;96484.50;;;19.16;52.36
70434;BME280;57876;47.792;12.960;2023-06-14T08:09:10;96490.00;;;19.16;52.22
70434;BME280;57876;47.792;12.960;2023-06-14T08:11:35;96483.25;;;19.13;52.23
70434;BME280;57876;47.792;12.960;2023-06-14T08:13:59;96487.25;;;19.16;52.19
70434;BME280;57876;47.792;12.960;2023-06-14T08:16:24;96477.78;;;19.13;52.29
70434;BME280;57876;47.792;12.960;2023-06-14T08:18:48;96489.19;;;19.15;52.10
70434;BME280;57876;47.792;12.960;2023-06-14T08:21:13;96482.47;;;19.12;52.24
70434;BME280;57876;47.792;12.960;2023-06-14T08:23:38;96473.00;;;19.10;52.12
70434;BME280;57876;47.792;12.960;2023-06-14T08:26:04;96463.31;;;19.00;52.40
70434;BME280;57876;47.792;12.960;2023-06-14T08:28:28;96475.28;;;19.08;52.20
70434;BME280;57876;47.792;12.960;2023-06-14T08:30:52;96469.69;;;19.04;52.19
70434;BME280;57876;47.792;12.960;2023-06-14T08:33:17;96470.03;;;19.03;52.31
70434;BME280;57876;47.792;12.960;2023-06-14T08:35:41;96466.06;;;19.00;52.21
70434;BME280;57876;47.792;12.960;2023-06-14T08:38:06;96462.84;;;18.98;52.42
70434;BME280;57876;47.792;12.960;2023-06-14T08:40:31;96478.97;;;19.00;52.33
70434;BME280;57876;47.792;12.960;2023-06-14T08:42:55;96478.50;;;18.98;52.08
70434;BME280;57876;47.792;12.960;2023-06-14T08:45:23;96482.81;;;18.99;52.25
70434;BME280;57876;47.792;12.960;2023-06-14T08:47:53;96491.41;;;18.97;52.50
70434;BME280;57876;47.792;12.960;2023-06-14T08:50:21;96479.53;;;18.93;52.48
70434;BME280;57876;47.792;12.960;2023-06-14T08:52:51;96492.91;;;18.95;52.46
70434;BME280;57876;47.792;12.960;2023-06-14T08:55:17;96478.88;;;18.84;52.48
70434;BME280;57876;47.792;12.960;2023-06-14T08:57:42;96474.28;;;18.88;52.40
70434;BME280;57876;47.792;12.960;2023-06-14T09:00:06;96471.47;;;18.84;52.44
70434;BME280;57876;47.792;12.960;2023-06-14T09:02:38;96477.03;;;18.88;52.50
70434;BME280;57876;47.792;12.960;2023-06-14T09:05:07;96485.72;;;18.90;52.56
70434;BME280;57876;47.792;12.960;2023-06-14T09:07:32;96477.28;;;18.83;52.53
70434;BME280;57876;47.792;12.960;2023-06-14T09:10:08;96485.25;;;18.88;52.30
70434;BME280;57876;47.792;12.960;2023-06-14T09:12:33;96490.31;;;18.86;52.09
70434;BME280;57876;47.792;12.960;2023-06-14T09:14:57;96484.81;;;18.86;52.45
70434;BME280;57876;47.792;12.960;2023-06-14T09:17:23;96482.75;;;18.83;52.49
70434;BME280;57876;47.792;12.960;2023-06-14T09:19:47;96479.34;;;18.86;52.17
70434;BME280;57876;47.792;12.960;2023-06-14T09:22:11;96479.59;;;18.81;52.49
70434;BME280;57876;47.792;12.960;2023-06-14T09:24:36;96473.53;;;18.75;52.38
70434;BME280;57876;47.792;12.960;2023-06-14T09:27:00;96489.84;;;18.84;52.41
70434;BME280;57876;47.792;12.960;2023-06-14T09:29:25;96483.03;;;18.78;52.52
70434;BME280;57876;47.792;12.960;2023-06-14T09:31:50;96484.59;;;18.79;52.43
70434;BME280;57876;47.792;12.960;2023-06-14T09:34:16;96498.75;;;18.81;52.37
70434;BME280;57876;47.792;12.960;2023-06-14T09:36:41;96495.66;;;18.82;52.81
70434;BME280;57876;47.792;12.960;2023-06-14T09:39:06;96477.06;;;18.76;52.55
70434;BME280;57876;47.792;12.960;2023-06-14T09:41:39;96485.75;;;18.78;52.46
70434;BME280;57876;47.792;12.960;2023-06-14T09:44:08;96490.53;;;18.81;52.43
70434;BME280;57876;47.792;12.960;2023-06-14T09:46:33;96496.25;;;18.76;52.53
70434;BME280;57876;47.792;12.960;2023-06-14T09:48:59;96491.66;;;18.80;52.43
70434;BME280;57876;47.792;12.960;2023-06-14T09:51:24;96495.09;;;18.77;52.30
70434;BME280;57876;47.792;12.960;2023-06-14T09:53:49;96483.69;;;18.75;52.53
70434;BME280;57876;47.792;12.960;2023-06-14T09:56:17;96497.06;;;18.76;52.55
70434;BME280;57876;47.792;12.960;2023-06-14T09:58:44;96497.50;;;18.78;52.53
70434;BME280;57876;47.792;12.960;2023-06-14T10:01:09;96488.56;;;18.69;52.50
70434;BME280;57876;47.792;12.960;2023-06-14T10:03:38;96503.97;;;18.74;52.58
70434;BME280;57876;47.792;12.960;2023-06-14T10:06:07;96504.78;;;18.74;52.55
70434;BME280;57876;47.792;12.960;2023-06-14T10:08:35;96496.25;;;18.76;52.44
70434;BME280;57876;47.792;12.960;2023-06-14T10:11:01;96496.09;;;18.72;52.49
70434;BME280;57876;47.792;12.960;2023-06-14T10:13:26;96484.25;;;18.68;52.55
70434;BME280;57876;47.792;12.960;2023-06-14T10:16:04;96487.44;;;18.70;52.43
70434;BME280;57876;47.792;12.960;2023-06-14T10:18:45;96483.47;;;18.67;52.72
70434;BME280;57876;47.792;12.960;2023-06-14T10:21:22;96497.72;;;18.73;52.63
70434;BME280;57876;47.792;12.960;2023-06-14T10:23:51;96481.16;;;18.69;52.70
70434;BME280;57876;47.792;12.960;2023-06-14T10:26:21;96487.53;;;18.74;52.64
70434;BME280;57876;47.792;12.960;2023-06-14T10:29:06;96459.03;;;18.62;52.47
70434;BME280;57876;47.792;12.960;2023-06-14T10:31:41;96485.97;;;18.73;52.36
70434;BME280;57876;47.792;12.960;2023-06-14T10:34:06;96475.00;;;18.60;52.41
70434;BME280;57876;47.792;12.960;2023-06-14T10:36:31;96487.09;;;18.71;52.48
70434;BME280;57876;47.792;12.960;2023-06-14T10:39:06;96479.56;;;18.68;52.64
70434;BME280;57876;47.792;12.960;2023-06-14T10:41:35;96477.53;;;18.65;52.60
70434;BME280;57876;47.792;12.960;2023-06-14T10:49:12;96476.03;;;18.68;52.69
70434;BME280;57876;47.792;12.960;2023-06-14T10:51:42;96475.66;;;18.69;52.90
70434;BME280;57876;47.792;12.960;2023-06-14T10:54:13;96475.94;;;18.64;52.49
70434;BME280;57876;47.792;12.960;2023-06-14T10:56:37;96479.56;;;18.68;52.68
70434;BME280;57876;47.792;12.960;2023-06-14T10:59:02;96470.47;;;18.64;52.61
70434;BME280;57876;47.792;12.960;2023-06-14T11:04:11;96478.78;;;18.68;52.97
70434;BME280;57876;47.792;12.960;2023-06-14T11:06:49;96476.03;;;18.68;52.68
70434;BME280;57876;47.792;12.960;2023-06-14T11:12:18;96470.47;;;18.64;52.14
70434;BME280;57876;47.792;12.960;2023-06-14T11:14:45;96473.63;;;18.66;52.38
70434;BME280;57876;47.792;12.960;2023-06-14T11:17:12;96455.38;;;18.58;52.79
70434;BME280;57876;47.792;12.960;2023-06-14T11:19:36;96462.91;;;18.61;52.13
70434;BME280;57876;47.792;12.960;2023-06-14T11:22:01;96467.72;;;18.64;52.60
70434;BME280;57876;47.792;12.960;2023-06-14T11:24:25;96461.31;;;18.60;52.48
70434;BME280;57876;47.792;12.960;2023-06-14T11:26:49;96466.91;;;18.64;52.63
70434;BME280;57876;47.792;12.960;2023-06-14T11:29:15;96451.06;;;18.57;52.69
70434;BME280;57876;47.792;12.960;2023-06-14T11:31:43;96470.47;;;18.64;52.52
70434;BME280;57876;47.792;12.960;2023-06-14T11:34:09;96454.25;;;18.59;52.55
70434;BME280;57876;47.792;12.960;2023-06-14T11:36:34;96460.63;;;18.63;52.43
70434;BME280;57876;47.792;12.960;2023-06-14T11:39:03;96451.94;;;18.61;52.35
70434;BME280;57876;47.792;12.960;2023-06-14T11:41:36;96455.16;;;18.63;52.65
70434;BME280;57876;47.792;12.960;2023-06-14T11:44:02;96453.19;;;18.64;52.57
70434;BME280;57876;47.792;12.960;2023-06-14T11:46:27;96441.69;;;18.58;52.50
70434;BME280;57876;47.792;12.960;2023-06-14T11:48:51;96443.31;;;18.59;52.91
70434;BME280;57876;47.792;12.960;2023-06-14T11:51:16;96444.56;;;18.62;52.64
70434;BME280;57876;47.792;12.960;2023-06-14T11:53:42;96428.91;;;18.50;52.40
70434;BME280;57876;47.792;12.960;2023-06-14T11:56:07;96435.31;;;18.54;52.65
70434;BME280;57876;47.792;12.960;2023-06-14T11:58:31;96430.28;;;18.56;52.62
70434;BME280;57876;47.792;12.960;2023-06-14T12:00:56;96439.31;;;18.57;52.73
70434;BME280;57876;47.792;12.960;2023-06-14T12:03:24;96442.59;;;18.62;52.62
70434;BME280;57876;47.792;12.960;2023-06-14T12:05:49;96440.19;;;18.61;52.82
70434;BME280;57876;47.792;12.960;2023-06-14T12:08:13;96444.09;;;18.60;52.57
70434;BME280;57876;47.792;12.960;2023-06-14T12:10:41;96442.47;;;18.59;52.58
70434;BME280;57876;47.792;12.960;2023-06-14T12:13:07;96430.41;;;18.60;52.59
70434;BME280;57876;47.792;12.960;2023-06-14T12:15:32;96423.66;;;18.57;52.62
70434;BME280;57876;47.792;12.960;2023-06-14T12:17:57;96425.63;;;18.57;52.71
70434;BME280;57876;47.792;12.960;2023-06-14T12:20:22;96425.25;;;18.58;52.52
70434;BME280;57876;47.792;12.960;2023-06-14T12:22:57;96424.13;;;18.59;52.41
70434;BME280;57876;47.792;12.960;2023-06-14T12:27:55;96428.34;;;18.57;52.54
70434;BME280;57876;47.792;12.960;2023-06-14T12:30:20;96419.59;;;18.51;52.82
70434;BME280;57876;47.792;12.960;2023-06-14T12:32:44;96425.63;;;18.57;52.77
70434;BME280;57876;47.792;12.960;2023-06-14T12:35:09;96428.34;;;18.57;52.81
70434;BME280;57876;47.792;12.960;2023-06-14T12:37:34;96418.88;;;18.54;52.66
70434;BME280;57876;47.792;12.960;2023-06-14T12:39:58;96412.94;;;18.52;52.63
70434;BME280;57876;47.792;12.960;2023-06-14T12:42:24;96436.66;;;18.60;53.10
70434;BME280;57876;47.792;12.960;2023-06-14T12:44:48;96418.09;;;18.54;52.75
70434;BME280;57876;47.792;12.960;2023-06-14T12:47:12;96422.41;;;18.55;52.63
70434;BME280;57876;47.792;12.960;2023-06-14T12:49:37;96421.16;;;18.52;52.56
70434;BME280;57876;47.792;12.960;2023-06-14T12:52:01;96418.88;;;18.54;53.06
70434;BME280;57876;47.792;12.960;2023-06-14T12:54:25;96421.63;;;18.54;52.62
70434;BME280;57876;47.792;12.960;2023-06-14T12:56:50;96418.88;;;18.54;52.76
70434;BME280;57876;47.792;12.960;2023-06-14T12:59:15;96436.56;;;18.57;52.62
70434;BME280;57876;47.792;12.960;2023-06-14T13:01:39;96423.91;;;18.52;52.59